createdAt,value
2022-12-18T00:00:14.407Z,112.13
2022-12-18T00:05:17.536Z,129.10
2022-12-18T00:10:20.585Z,58.37
2022-12-18T00:15:25.053Z,89.80
2022-12-18T00:20:28.116Z,50.97
2022-12-18T00:25:31.348Z,58.33
2022-12-18T00:30:38.170Z,133.87
2022-12-18T00:35:41.353Z,92.97
2022-12-18T00:40:44.727Z,129.57
2022-12-18T00:45:50.784Z,102.17
2022-12-18T00:50:53.905Z,52.33
2022-12-18T00:55:56.979Z,76.83
2022-12-18T01:01:01.828Z,89.60
2022-12-18T01:06:08.795Z,74.53
2022-12-18T01:11:13.947Z,58.23
2022-12-18T01:16:19.955Z,41.43
2022-12-18T01:21:25.133Z,51.10
2022-12-18T01:26:30.994Z,40.57
2022-12-18T01:31:36.037Z,37.03
2022-12-18T01:36:41.760Z,50.03
2022-12-18T01:42:01.735Z,37.30
2022-12-18T01:47:06.212Z,39.70
2022-12-18T01:52:09.409Z,30.33
2022-12-18T01:57:12.565Z,37.03
2022-12-18T02:02:17.917Z,36.47
2022-12-18T02:07:30.804Z,33.93
2022-12-18T02:12:44.441Z,41.03
2022-12-18T02:17:53.913Z,35.70
2022-12-18T02:23:16.568Z,36.10
2022-12-18T02:28:25.342Z,37.20
2022-12-18T02:33:32.207Z,37.40
2022-12-18T02:38:36.940Z,34.87
2022-12-18T02:43:55.671Z,36.50
2022-12-18T02:49:08.058Z,35.20
2022-12-18T02:54:19.976Z,43.30
2022-12-18T02:59:33.035Z,40.93
2022-12-18T03:04:41.937Z,36.97
2022-12-18T03:09:52.271Z,43.37
2022-12-18T03:15:04.027Z,40.57
2022-12-18T03:20:12.219Z,39.53
2022-12-18T03:25:19.184Z,35.20
2022-12-18T03:30:24.497Z,37.70
2022-12-18T03:35:32.748Z,32.20
2022-12-18T03:40:46.922Z,33.67
2022-12-18T03:45:56.697Z,34.80
2022-12-18T03:51:07.168Z,31.13
2022-12-18T03:56:12.982Z,30.17
2022-12-18T04:01:22.086Z,30.63
2022-12-18T04:06:25.718Z,29.27
2022-12-18T04:11:29.028Z,26.20
2022-12-18T04:16:33.500Z,30.60
2022-12-18T04:21:39.527Z,28.77
2022-12-18T04:26:42.997Z,24.57
2022-12-18T04:31:54.134Z,23.30
2022-12-18T04:36:57.803Z,28.23
2022-12-18T04:42:02.167Z,23.83
2022-12-18T04:47:08.651Z,25.83
2022-12-18T04:52:11.713Z,20.43
2022-12-18T04:57:14.842Z,25.33
2022-12-18T05:02:19.342Z,25.30
2022-12-18T05:07:22.473Z,21.70
2022-12-18T05:12:26.887Z,21.20
2022-12-18T05:17:31.241Z,24.43
2022-12-18T05:22:34.267Z,29.07
2022-12-18T05:27:37.403Z,24.13
2022-12-18T05:32:42.436Z,22.33
2022-12-18T05:37:45.482Z,23.23
2022-12-18T05:42:48.405Z,21.50
2022-12-18T05:47:52.770Z,25.20
2022-12-18T05:52:56.099Z,26.10
2022-12-18T05:57:59.287Z,23.77
2022-12-18T06:03:04.418Z,21.07
2022-12-18T06:08:09.012Z,20.63
2022-12-18T06:13:12.018Z,21.67
2022-12-18T06:18:16.571Z,20.83
2022-12-18T06:23:19.671Z,22.37
2022-12-18T06:28:22.956Z,17.50
2022-12-18T06:33:29.034Z,19.60
2022-12-18T06:38:32.984Z,21.30
2022-12-18T06:43:36.152Z,17.03
2022-12-18T06:48:40.791Z,18.43
2022-12-18T06:53:43.882Z,19.23
2022-12-18T06:58:47.007Z,20.17
2022-12-18T07:03:54.665Z,20.07
2022-12-18T07:08:57.876Z,18.07
2022-12-18T07:14:00.896Z,18.40
2022-12-18T07:19:05.782Z,19.40
2022-12-18T07:24:09.527Z,17.80
2022-12-18T07:29:12.459Z,18.70
2022-12-18T07:34:26.312Z,19.13
2022-12-18T07:39:45.205Z,16.70
2022-12-18T07:44:48.557Z,17.50
2022-12-18T07:49:53.077Z,18.97
2022-12-18T07:54:56.703Z,18.33
2022-12-18T08:00:00.385Z,16.43
2022-12-18T08:05:05.310Z,17.97
2022-12-18T08:10:10.776Z,18.50
2022-12-18T08:15:13.786Z,20.30
2022-12-18T08:20:19.383Z,15.73
2022-12-18T08:25:22.524Z,16.40
2022-12-18T08:30:25.604Z,17.13
2022-12-18T08:35:35.866Z,15.90
2022-12-18T08:40:40.282Z,14.40
2022-12-18T08:45:43.618Z,14.40
2022-12-18T08:50:57.781Z,13.53
2022-12-18T08:56:01.198Z,14.03
2022-12-18T09:01:05.049Z,15.23
2022-12-18T09:06:10.301Z,14.60
2022-12-18T09:11:16.429Z,13.93
2022-12-18T09:16:20.682Z,17.13
2022-12-18T09:21:25.121Z,14.73
2022-12-18T09:26:29.079Z,13.77
2022-12-18T09:31:32.275Z,17.07
2022-12-18T09:36:36.900Z,12.93
2022-12-18T09:41:48.409Z,13.87
2022-12-18T09:46:57.885Z,15.27
2022-12-18T09:52:07.278Z,14.73
2022-12-18T09:57:21.215Z,17.50
2022-12-18T10:02:27.637Z,15.33
2022-12-18T10:07:42.236Z,16.40
2022-12-18T10:12:59.528Z,16.17
2022-12-18T10:18:21.700Z,14.10
2022-12-18T10:23:30.992Z,15.53
2022-12-18T10:28:40.150Z,11.97
2022-12-18T10:33:43.462Z,13.07
2022-12-18T10:38:47.897Z,14.93
2022-12-18T10:44:10.882Z,12.93
2022-12-18T10:49:28.886Z,15.27
2022-12-18T10:54:35.769Z,14.37
2022-12-18T10:59:53.141Z,14.50
2022-12-18T11:04:56.489Z,14.63
2022-12-18T11:10:04.077Z,15.43
2022-12-18T11:15:09.665Z,13.43
2022-12-18T11:20:25.994Z,14.97
2022-12-18T11:25:32.905Z,16.13
2022-12-18T11:30:38.590Z,15.63
2022-12-18T11:35:49.518Z,14.33
2022-12-18T11:41:01.129Z,12.20
2022-12-18T11:46:11.522Z,12.93
2022-12-18T11:51:28.318Z,15.33
2022-12-18T11:56:37.275Z,16.10
2022-12-18T12:01:51.004Z,14.03
2022-12-18T12:07:04.810Z,13.40
2022-12-18T12:12:25.798Z,15.33
2022-12-18T12:17:38.876Z,15.70
2022-12-18T12:22:53.202Z,14.13
2022-12-18T12:28:15.741Z,13.37
2022-12-18T12:33:35.523Z,12.53
2022-12-18T12:38:49.777Z,14.10
2022-12-18T12:43:59.852Z,17.37
2022-12-18T12:49:10.787Z,14.00
2022-12-18T12:54:19.984Z,16.97
2022-12-18T12:59:32.104Z,16.37
2022-12-18T13:04:42.390Z,20.37
2022-12-18T13:10:17.199Z,17.83
2022-12-18T13:15:26.015Z,14.90
2022-12-18T13:20:38.244Z,16.73
2022-12-18T13:25:41.434Z,17.27
2022-12-18T13:30:52.605Z,16.47
2022-12-18T13:36:04.844Z,18.40
2022-12-18T13:41:25.209Z,16.33
2022-12-18T13:46:32.396Z,16.27
2022-12-18T13:51:37.441Z,15.40
2022-12-18T13:56:46.237Z,16.33
2022-12-18T14:01:55.332Z,14.57
2022-12-18T14:07:04.112Z,19.67
2022-12-18T14:12:26.562Z,17.03
2022-12-18T14:17:33.648Z,16.07
2022-12-18T14:22:37.908Z,16.17
2022-12-18T14:27:45.638Z,15.83
2022-12-18T14:33:06.987Z,15.67
2022-12-18T14:38:24.946Z,18.30
2022-12-18T14:43:29.725Z,16.93
2022-12-18T14:48:50.420Z,15.13
2022-12-18T14:53:57.872Z,15.87
2022-12-18T14:59:02.480Z,15.90
2022-12-18T15:04:25.249Z,15.23
2022-12-18T15:09:30.941Z,17.57
2022-12-18T15:14:41.480Z,15.93
2022-12-18T15:19:48.022Z,17.37
2022-12-18T15:24:51.649Z,13.27
2022-12-18T15:30:24.823Z,16.80
2022-12-18T15:35:29.794Z,16.00
2022-12-18T15:40:36.328Z,15.87
2022-12-18T15:45:39.572Z,17.60
2022-12-18T15:50:43.980Z,15.43
2022-12-18T15:56:05.418Z,13.87
2022-12-18T16:01:14.141Z,17.33
2022-12-18T16:06:20.508Z,18.27
2022-12-18T16:11:39.805Z,17.90
2022-12-18T16:16:43.063Z,20.53
2022-12-18T16:21:49.418Z,18.23
2022-12-18T16:26:54.079Z,16.97
2022-12-18T16:32:16.117Z,16.17
2022-12-18T16:37:20.676Z,16.03
2022-12-18T16:42:30.382Z,18.27
2022-12-18T16:47:33.723Z,16.10
2022-12-18T16:52:41.310Z,17.00
2022-12-18T16:57:47.592Z,15.63
2022-12-18T17:02:50.896Z,15.63
2022-12-18T17:07:55.885Z,16.70
2022-12-18T17:13:00.088Z,15.03
2022-12-18T17:18:03.676Z,16.17
2022-12-18T17:23:21.319Z,16.53
2022-12-18T17:28:26.408Z,15.43
2022-12-18T17:33:32.989Z,17.77
2022-12-18T17:38:42.295Z,16.40
2022-12-18T17:43:54.681Z,16.03
2022-12-18T17:48:58.512Z,16.90
2022-12-18T17:54:03.058Z,14.23
2022-12-18T17:59:07.090Z,15.23
2022-12-18T18:04:10.409Z,15.33
2022-12-18T18:09:16.801Z,16.87
2022-12-18T18:14:21.662Z,15.00
2022-12-18T18:19:26.381Z,16.30
2022-12-18T18:24:31.012Z,15.70
2022-12-18T18:29:34.607Z,16.60
2022-12-18T18:34:41.925Z,17.63
2022-12-18T18:39:46.490Z,18.60
2022-12-18T18:44:52.512Z,20.07
2022-12-18T18:49:56.852Z,15.37
2022-12-18T18:55:13.394Z,16.63
2022-12-18T19:00:18.547Z,18.30
2022-12-18T19:05:22.986Z,17.97
2022-12-18T19:10:27.742Z,20.03
2022-12-18T19:15:34.447Z,18.37
2022-12-18T19:20:38.021Z,17.50
2022-12-18T19:26:10.337Z,17.87
2022-12-18T19:31:24.824Z,18.60
2022-12-18T19:36:31.186Z,18.13
2022-12-18T19:41:35.697Z,18.20
2022-12-18T19:46:41.799Z,17.17
2022-12-18T19:51:45.562Z,17.00
2022-12-18T19:56:55.918Z,21.30
2022-12-18T20:02:05.075Z,20.63
2022-12-18T20:07:08.871Z,19.00
2022-12-18T20:12:13.418Z,26.13
2022-12-18T20:17:16.629Z,22.10
2022-12-18T20:22:20.201Z,23.43
2022-12-18T20:27:24.940Z,23.20
2022-12-18T20:32:31.488Z,22.10
2022-12-18T20:37:39.320Z,20.80
2022-12-18T20:42:47.505Z,25.20
2022-12-18T20:47:50.667Z,19.50
2022-12-18T20:52:53.805Z,23.83
2022-12-18T20:57:59.246Z,21.83
2022-12-18T21:03:02.549Z,25.93
2022-12-18T21:08:06.407Z,24.33
2022-12-18T21:13:12.328Z,25.87
2022-12-18T21:18:16.978Z,22.60
2022-12-18T21:23:20.027Z,23.00
2022-12-18T21:28:24.578Z,24.90
2022-12-18T21:33:27.793Z,26.23
2022-12-18T21:38:33.257Z,24.23
2022-12-18T21:43:57.042Z,23.33
2022-12-18T21:49:00.460Z,23.53
2022-12-18T21:54:04.666Z,25.77
2022-12-18T21:59:11.710Z,27.63
2022-12-18T22:04:15.248Z,25.00
2022-12-18T22:09:20.324Z,26.77
2022-12-18T22:14:24.998Z,27.77
2022-12-18T22:19:28.248Z,27.23
2022-12-18T22:24:31.537Z,26.20
2022-12-18T22:29:53.217Z,28.67
2022-12-18T22:34:59.374Z,28.17
2022-12-18T22:40:08.709Z,28.07
2022-12-18T22:45:13.617Z,34.40
2022-12-18T22:50:16.903Z,30.50
2022-12-18T22:55:20.646Z,28.20
2022-12-18T23:00:25.107Z,35.07
2022-12-18T23:05:32.496Z,34.57
2022-12-18T23:10:38.829Z,24.20
2022-12-18T23:15:44.068Z,31.50
2022-12-18T23:20:47.467Z,31.67
2022-12-18T23:25:50.826Z,38.37
2022-12-18T23:30:55.626Z,32.50
2022-12-18T23:36:00.099Z,32.90
2022-12-18T23:41:08.172Z,39.40
2022-12-18T23:46:13.988Z,36.33
2022-12-18T23:51:18.221Z,39.30
2022-12-18T23:56:21.341Z,39.67
